sensor_id;sensor_type;location;lat;lon;timestamp;temperature;humidity
44775;DHT22;31340;51.402;0.016;2023-02-28T00:01:33;6.40;93.40
44775;DHT22;31340;51.402;0.016;2023-02-28T00:04:01;6.30;93.50
44775;DHT22;31340;51.402;0.016;2023-02-28T00:06:29;6.30;93.50
44775;DHT22;31340;51.402;0.016;2023-02-28T00:08:56;6.30;93.60
44775;DHT22;31340;51.402;0.016;2023-02-28T00:11:24;6.30;93.70
44775;DHT22;31340;51.402;0.016;2023-02-28T00:13:51;6.30;93.80
44775;DHT22;31340;51.402;0.016;2023-02-28T00:16:21;6.20;93.80
44775;DHT22;31340;51.402;0.016;2023-02-28T00:18:50;6.20;93.90
44775;DHT22;31340;51.402;0.016;2023-02-28T00:21:19;6.20;94.00
44775;DHT22;31340;51.402;0.016;2023-02-28T00:23:47;6.10;94.00
44775;DHT22;31340;51.402;0.016;2023-02-28T00:26:15;6.10;94.10
44775;DHT22;31340;51.402;0.016;2023-02-28T00:28:46;6.10;94.10
44775;DHT22;31340;51.402;0.016;2023-02-28T00:31:13;6.10;94.20
44775;DHT22;31340;51.402;0.016;2023-02-28T00:33:41;6.00;94.20
44775;DHT22;31340;51.402;0.016;2023-02-28T00:36:10;6.00;94.20
44775;DHT22;31340;51.402;0.016;2023-02-28T00:38:39;6.00;94.30
44775;DHT22;31340;51.402;0.016;2023-02-28T00:41:07;5.90;94.30
44775;DHT22;31340;51.402;0.016;2023-02-28T00:43:37;5.90;94.40
44775;DHT22;31340;51.402;0.016;2023-02-28T00:46:05;5.80;94.40
44775;DHT22;31340;51.402;0.016;2023-02-28T00:48:34;5.80;94.50
44775;DHT22;31340;51.402;0.016;2023-02-28T00:51:03;5.70;94.50
44775;DHT22;31340;51.402;0.016;2023-02-28T00:53:31;5.70;94.60
44775;DHT22;31340;51.402;0.016;2023-02-28T00:56:02;5.70;94.60
44775;DHT22;31340;51.402;0.016;2023-02-28T00:58:31;5.60;94.60
44775;DHT22;31340;51.402;0.016;2023-02-28T01:00:58;5.60;94.70
44775;DHT22;31340;51.402;0.016;2023-02-28T01:03:26;5.50;94.70
44775;DHT22;31340;51.402;0.016;2023-02-28T01:05:53;5.50;94.80
44775;DHT22;31340;51.402;0.016;2023-02-28T01:08:21;5.40;94.80
44775;DHT22;31340;51.402;0.016;2023-02-28T01:10:50;5.40;94.90
44775;DHT22;31340;51.402;0.016;2023-02-28T01:13:19;5.40;95.00
44775;DHT22;31340;51.402;0.016;2023-02-28T01:15:50;5.30;95.10
44775;DHT22;31340;51.402;0.016;2023-02-28T01:18:20;5.30;95.10
44775;DHT22;31340;51.402;0.016;2023-02-28T01:20:48;5.20;95.20
44775;DHT22;31340;51.402;0.016;2023-02-28T01:23:18;5.20;95.20
44775;DHT22;31340;51.402;0.016;2023-02-28T01:25:46;5.20;95.30
44775;DHT22;31340;51.402;0.016;2023-02-28T01:28:14;5.10;95.30
44775;DHT22;31340;51.402;0.016;2023-02-28T01:30:41;5.10;95.40
44775;DHT22;31340;51.402;0.016;2023-02-28T01:33:09;5.10;95.50
44775;DHT22;31340;51.402;0.016;2023-02-28T01:35:36;5.10;95.60
44775;DHT22;31340;51.402;0.016;2023-02-28T01:38:05;5.00;95.70
44775;DHT22;31340;51.402;0.016;2023-02-28T01:40:48;5.00;95.80
44775;DHT22;31340;51.402;0.016;2023-02-28T01:45:49;5.00;96.00
44775;DHT22;31340;51.402;0.016;2023-02-28T01:48:19;5.00;96.10
44775;DHT22;31340;51.402;0.016;2023-02-28T01:50:48;5.00;96.20
44775;DHT22;31340;51.402;0.016;2023-02-28T01:53:21;5.00;96.20
44775;DHT22;31340;51.402;0.016;2023-02-28T01:55:52;5.00;96.40
44775;DHT22;31340;51.402;0.016;2023-02-28T01:58:21;5.00;96.40
44775;DHT22;31340;51.402;0.016;2023-02-28T02:00:49;5.00;96.50
44775;DHT22;31340;51.402;0.016;2023-02-28T02:03:18;5.00;96.50
44775;DHT22;31340;51.402;0.016;2023-02-28T02:05:47;5.10;96.60
44775;DHT22;31340;51.402;0.016;2023-02-28T02:08:21;5.00;96.60
44775;DHT22;31340;51.402;0.016;2023-02-28T02:11:00;5.10;96.70
44775;DHT22;31340;51.402;0.016;2023-02-28T02:18:48;5.00;96.70
44775;DHT22;31340;51.402;0.016;2023-02-28T02:33:28;5.00;97.00
44775;DHT22;31340;51.402;0.016;2023-02-28T02:36:25;4.90;97.10
44775;DHT22;31340;51.402;0.016;2023-02-28T02:39:06;4.90;97.20
44775;DHT22;31340;51.402;0.016;2023-02-28T02:41:47;4.90;97.20
44775;DHT22;31340;51.402;0.016;2023-02-28T02:44:43;4.90;97.20
44775;DHT22;31340;51.402;0.016;2023-02-28T02:47:16;4.90;97.30
44775;DHT22;31340;51.402;0.016;2023-02-28T02:49:51;4.90;97.30
44775;DHT22;31340;51.402;0.016;2023-02-28T02:52:23;4.90;97.40
44775;DHT22;31340;51.402;0.016;2023-02-28T02:54:54;4.80;97.40
44775;DHT22;31340;51.402;0.016;2023-02-28T02:57:31;4.80;97.50
44775;DHT22;31340;51.402;0.016;2023-02-28T03:00:03;4.80;97.50
44775;DHT22;31340;51.402;0.016;2023-02-28T03:02:36;4.80;97.50
44775;DHT22;31340;51.402;0.016;2023-02-28T03:05:12;4.80;97.50
44775;DHT22;31340;51.402;0.016;2023-02-28T03:07:42;4.70;97.50
44775;DHT22;31340;51.402;0.016;2023-02-28T03:10:31;4.70;97.50
44775;DHT22;31340;51.402;0.016;2023-02-28T03:19:03;4.60;97.40
44775;DHT22;31340;51.402;0.016;2023-02-28T03:21:40;4.60;97.50
44775;DHT22;31340;51.402;0.016;2023-02-28T03:26:49;4.50;97.50
44775;DHT22;31340;51.402;0.016;2023-02-28T03:29:30;4.50;97.50
44775;DHT22;31340;51.402;0.016;2023-02-28T03:32:05;4.50;97.60
44775;DHT22;31340;51.402;0.016;2023-02-28T03:34:41;4.40;97.50
44775;DHT22;31340;51.402;0.016;2023-02-28T03:37:20;4.40;97.60
44775;DHT22;31340;51.402;0.016;2023-02-28T03:39:58;4.30;97.60
44775;DHT22;31340;51.402;0.016;2023-02-28T03:42:29;4.30;97.70
44775;DHT22;31340;51.402;0.016;2023-02-28T03:45:04;4.30;97.70
44775;DHT22;31340;51.402;0.016;2023-02-28T03:47:41;4.20;97.60
44775;DHT22;31340;51.402;0.016;2023-02-28T03:50:23;4.20;97.70
44775;DHT22;31340;51.402;0.016;2023-02-28T03:53:02;4.10;97.70
44775;DHT22;31340;51.402;0.016;2023-02-28T03:55:36;4.10;97.70
44775;DHT22;31340;51.402;0.016;2023-02-28T03:58:22;4.00;97.70
44775;DHT22;31340;51.402;0.016;2023-02-28T04:01:08;3.90;97.80
44775;DHT22;31340;51.402;0.016;2023-02-28T04:03:38;3.90;97.90
44775;DHT22;31340;51.402;0.016;2023-02-28T04:06:12;3.80;97.90
44775;DHT22;31340;51.402;0.016;2023-02-28T04:08:41;3.80;98.00
44775;DHT22;31340;51.402;0.016;2023-02-28T04:11:21;3.80;98.00
44775;DHT22;31340;51.402;0.016;2023-02-28T04:13:49;3.80;98.10
44775;DHT22;31340;51.402;0.016;2023-02-28T04:16:18;3.70;98.10
44775;DHT22;31340;51.402;0.016;2023-02-28T04:19:05;3.70;98.10
44775;DHT22;31340;51.402;0.016;2023-02-28T04:21:35;3.60;98.10
44775;DHT22;31340;51.402;0.016;2023-02-28T04:24:03;3.60;98.20
44775;DHT22;31340;51.402;0.016;2023-02-28T04:26:32;3.60;98.20
44775;DHT22;31340;51.402;0.016;2023-02-28T04:29:03;3.60;98.30
44775;DHT22;31340;51.402;0.016;2023-02-28T04:31:31;3.50;98.30
44775;DHT22;31340;51.402;0.016;2023-02-28T04:34:00;3.50;98.30
44775;DHT22;31340;51.402;0.016;2023-02-28T04:36:28;3.50;98.40
44775;DHT22;31340;51.402;0.016;2023-02-28T04:38:56;3.50;98.40
44775;DHT22;31340;51.402;0.016;2023-02-28T04:41:24;3.50;98.40
44775;DHT22;31340;51.402;0.016;2023-02-28T04:43:52;3.40;98.40
44775;DHT22;31340;51.402;0.016;2023-02-28T04:46:20;3.40;98.40
44775;DHT22;31340;51.402;0.016;2023-02-28T04:48:48;3.40;98.40
44775;DHT22;31340;51.402;0.016;2023-02-28T04:51:18;3.40;98.50
44775;DHT22;31340;51.402;0.016;2023-02-28T04:53:47;3.40;98.50
44775;DHT22;31340;51.402;0.016;2023-02-28T04:56:16;3.40;98.50
44775;DHT22;31340;51.402;0.016;2023-02-28T04:58:45;3.30;98.50
44775;DHT22;31340;51.402;0.016;2023-02-28T05:03:50;3.30;98.60
44775;DHT22;31340;51.402;0.016;2023-02-28T05:06:19;3.30;98.60
44775;DHT22;31340;51.402;0.016;2023-02-28T05:08:47;3.20;98.60
44775;DHT22;31340;51.402;0.016;2023-02-28T05:11:20;3.20;98.60
44775;DHT22;31340;51.402;0.016;2023-02-28T05:13:49;3.20;98.70
44775;DHT22;31340;51.402;0.016;2023-02-28T05:16:17;3.10;98.60
44775;DHT22;31340;51.402;0.016;2023-02-28T05:18:46;3.10;98.70
44775;DHT22;31340;51.402;0.016;2023-02-28T05:23:53;3.10;98.80
44775;DHT22;31340;51.402;0.016;2023-02-28T05:26:21;3.10;98.80
44775;DHT22;31340;51.402;0.016;2023-02-28T05:28:49;3.00;98.80
44775;DHT22;31340;51.402;0.016;2023-02-28T05:31:17;3.00;98.80
44775;DHT22;31340;51.402;0.016;2023-02-28T05:33:44;3.00;98.80
44775;DHT22;31340;51.402;0.016;2023-02-28T05:36:12;2.90;98.80
44775;DHT22;31340;51.402;0.016;2023-02-28T05:38:39;2.90;98.80
44775;DHT22;31340;51.402;0.016;2023-02-28T05:41:08;2.80;98.80
44775;DHT22;31340;51.402;0.016;2023-02-28T05:43:37;2.80;98.90
44775;DHT22;31340;51.402;0.016;2023-02-28T05:46:10;2.80;99.00
44775;DHT22;31340;51.402;0.016;2023-02-28T05:48:40;2.80;99.10
44775;DHT22;31340;51.402;0.016;2023-02-28T05:51:08;2.70;99.10
44775;DHT22;31340;51.402;0.016;2023-02-28T05:53:36;2.70;99.20
44775;DHT22;31340;51.402;0.016;2023-02-28T05:56:04;2.80;99.30
44775;DHT22;31340;51.402;0.016;2023-02-28T05:58:32;2.70;99.40
44775;DHT22;31340;51.402;0.016;2023-02-28T06:01:19;2.80;99.50
44775;DHT22;31340;51.402;0.016;2023-02-28T06:03:47;2.80;99.70
44775;DHT22;31340;51.402;0.016;2023-02-28T06:06:15;2.80;99.60
44775;DHT22;31340;51.402;0.016;2023-02-28T06:08:43;2.90;99.70
44775;DHT22;31340;51.402;0.016;2023-02-28T06:11:12;2.90;99.80
44775;DHT22;31340;51.402;0.016;2023-02-28T06:13:39;3.00;99.90
44775;DHT22;31340;51.402;0.016;2023-02-28T06:16:10;3.00;99.90
44775;DHT22;31340;51.402;0.016;2023-02-28T06:18:38;3.10;99.90
44775;DHT22;31340;51.402;0.016;2023-02-28T06:21:06;3.10;99.90
44775;DHT22;31340;51.402;0.016;2023-02-28T06:23:33;3.10;99.90
44775;DHT22;31340;51.402;0.016;2023-02-28T06:26:01;3.20;99.90
44775;DHT22;31340;51.402;0.016;2023-02-28T06:28:29;3.20;99.90
44775;DHT22;31340;51.402;0.016;2023-02-28T06:30:57;3.30;99.90
44775;DHT22;31340;51.402;0.016;2023-02-28T06:33:24;3.40;99.90
44775;DHT22;31340;51.402;0.016;2023-02-28T06:35:52;3.40;99.90
44775;DHT22;31340;51.402;0.016;2023-02-28T06:38:20;3.50;99.90
44775;DHT22;31340;51.402;0.016;2023-02-28T06:40:55;3.50;99.90
44775;DHT22;31340;51.402;0.016;2023-02-28T06:43:24;3.60;99.90
44775;DHT22;31340;51.402;0.016;2023-02-28T06:45:55;3.60;99.90
44775;DHT22;31340;51.402;0.016;2023-02-28T06:48:23;3.70;99.90
44775;DHT22;31340;51.402;0.016;2023-02-28T06:50:50;3.70;99.90
44775;DHT22;31340;51.402;0.016;2023-02-28T06:53:18;3.70;99.90
44775;DHT22;31340;51.402;0.016;2023-02-28T06:55:46;3.80;99.90
44775;DHT22;31340;51.402;0.016;2023-02-28T06:58:13;3.80;99.90
44775;DHT22;31340;51.402;0.016;2023-02-28T07:00:49;3.90;99.90
44775;DHT22;31340;51.402;0.016;2023-02-28T07:03:18;3.90;99.90
44775;DHT22;31340;51.402;0.016;2023-02-28T07:05:45;3.90;99.90
44775;DHT22;31340;51.402;0.016;2023-02-28T07:08:13;4.00;99.90
44775;DHT22;31340;51.402;0.016;2023-02-28T07:10:41;4.00;99.90
44775;DHT22;31340;51.402;0.016;2023-02-28T07:13:09;4.10;99.90
44775;DHT22;31340;51.402;0.016;2023-02-28T07:15:38;4.10;99.90
44775;DHT22;31340;51.402;0.016;2023-02-28T07:18:09;4.20;99.90
44775;DHT22;31340;51.402;0.016;2023-02-28T07:20:37;4.20;99.90
44775;DHT22;31340;51.402;0.016;2023-02-28T07:23:04;4.30;99.90
44775;DHT22;31340;51.402;0.016;2023-02-28T07:25:32;4.30;99.90
44775;DHT22;31340;51.402;0.016;2023-02-28T07:28:00;4.40;99.90
44775;DHT22;31340;51.402;0.016;2023-02-28T07:30:27;4.40;99.90
44775;DHT22;31340;51.402;0.016;2023-02-28T07:32:54;4.40;99.90
44775;DHT22;31340;51.402;0.016;2023-02-28T07:35:24;4.50;99.90
44775;DHT22;31340;51.402;0.016;2023-02-28T07:37:52;4.50;99.90
44775;DHT22;31340;51.402;0.016;2023-02-28T07:40:19;4.60;99.90
44775;DHT22;31340;51.402;0.016;2023-02-28T07:42:47;4.60;99.90
44775;DHT22;31340;51.402;0.016;2023-02-28T07:45:17;4.70;99.90
44775;DHT22;31340;51.402;0.016;2023-02-28T07:47:44;4.70;99.90
44775;DHT22;31340;51.402;0.016;2023-02-28T07:50:14;4.80;99.90
44775;DHT22;31340;51.402;0.016;2023-02-28T07:52:42;4.90;99.90
44775;DHT22;31340;51.402;0.016;2023-02-28T07:55:10;4.90;99.90
44775;DHT22;31340;51.402;0.016;2023-02-28T07:57:37;4.90;99.90
44775;DHT22;31340;51.402;0.016;2023-02-28T08:00:07;5.00;99.90
44775;DHT22;31340;51.402;0.016;2023-02-28T08:02:40;5.10;99.90
44775;DHT22;31340;51.402;0.016;2023-02-28T08:05:08;5.10;99.90
44775;DHT22;31340;51.402;0.016;2023-02-28T08:07:36;5.20;99.90
44775;DHT22;31340;51.402;0.016;2023-02-28T08:10:04;5.20;99.90
44775;DHT22;31340;51.402;0.016;2023-02-28T08:12:33;5.30;99.90
44775;DHT22;31340;51.402;0.016;2023-02-28T08:15:00;5.40;99.90
44775;DHT22;31340;51.402;0.016;2023-02-28T08:17:28;5.50;99.90
44775;DHT22;31340;51.402;0.016;2023-02-28T08:19:56;5.60;99.90
44775;DHT22;31340;51.402;0.016;2023-02-28T08:22:23;5.60;99.90
44775;DHT22;31340;51.402;0.016;2023-02-28T08:24:51;5.70;99.90
44775;DHT22;31340;51.402;0.016;2023-02-28T08:27:18;5.80;99.90
44775;DHT22;31340;51.402;0.016;2023-02-28T08:29:46;5.90;99.90
44775;DHT22;31340;51.402;0.016;2023-02-28T08:32:14;6.00;99.90
44775;DHT22;31340;51.402;0.016;2023-02-28T08:34:55;6.00;99.90
44775;DHT22;31340;51.402;0.016;2023-02-28T08:37:23;6.10;99.90
44775;DHT22;31340;51.402;0.016;2023-02-28T08:39:51;6.20;99.90
44775;DHT22;31340;51.402;0.016;2023-02-28T08:42:23;6.30;99.90
44775;DHT22;31340;51.402;0.016;2023-02-28T08:44:50;6.30;99.90
44775;DHT22;31340;51.402;0.016;2023-02-28T08:47:18;6.40;99.90
44775;DHT22;31340;51.402;0.016;2023-02-28T08:49:46;6.50;99.90
44775;DHT22;31340;51.402;0.016;2023-02-28T08:52:13;6.60;99.90
44775;DHT22;31340;51.402;0.016;2023-02-28T08:54:44;6.60;99.90
44775;DHT22;31340;51.402;0.016;2023-02-28T08:57:12;6.70;99.90
44775;DHT22;31340;51.402;0.016;2023-02-28T08:59:39;6.80;99.90
44775;DHT22;31340;51.402;0.016;2023-02-28T09:02:09;6.90;99.90
44775;DHT22;31340;51.402;0.016;2023-02-28T09:04:39;7.00;99.90
44775;DHT22;31340;51.402;0.016;2023-02-28T09:07:07;7.10;99.90
44775;DHT22;31340;51.402;0.016;2023-02-28T09:09:34;7.20;99.90
44775;DHT22;31340;51.402;0.016;2023-02-28T09:12:03;7.30;99.90
44775;DHT22;31340;51.402;0.016;2023-02-28T09:14:30;7.30;99.90
44775;DHT22;31340;51.402;0.016;2023-02-28T09:16:58;7.40;99.90
44775;DHT22;31340;51.402;0.016;2023-02-28T09:19:25;7.50;99.90
44775;DHT22;31340;51.402;0.016;2023-02-28T09:21:53;7.50;99.90
44775;DHT22;31340;51.402;0.016;2023-02-28T09:24:21;7.60;99.90
44775;DHT22;31340;51.402;0.016;2023-02-28T09:26:48;7.70;99.90
44775;DHT22;31340;51.402;0.016;2023-02-28T09:29:34;7.70;99.90
44775;DHT22;31340;51.402;0.016;2023-02-28T09:32:01;7.80;99.90
44775;DHT22;31340;51.402;0.016;2023-02-28T09:34:29;7.80;99.90
44775;DHT22;31340;51.402;0.016;2023-02-28T09:37:00;7.80;99.90
44775;DHT22;31340;51.402;0.016;2023-02-28T09:39:27;8.00;99.90
44775;DHT22;31340;51.402;0.016;2023-02-28T09:41:55;8.00;99.90
44775;DHT22;31340;51.402;0.016;2023-02-28T09:44:37;8.10;99.90
44775;DHT22;31340;51.402;0.016;2023-02-28T09:47:27;8.20;99.90
44775;DHT22;31340;51.402;0.016;2023-02-28T09:49:59;8.30;99.90
44775;DHT22;31340;51.402;0.016;2023-02-28T09:52:31;8.30;99.90
44775;DHT22;31340;51.402;0.016;2023-02-28T09:55:18;8.40;99.90
44775;DHT22;31340;51.402;0.016;2023-02-28T09:57:46;8.50;99.90
44775;DHT22;31340;51.402;0.016;2023-02-28T10:00:24;8.50;99.90
44775;DHT22;31340;51.402;0.016;2023-02-28T10:03:35;8.50;99.60
44775;DHT22;31340;51.402;0.016;2023-02-28T10:06:18;8.60;99.50
44775;DHT22;31340;51.402;0.016;2023-02-28T10:11:27;8.60;99.40
44775;DHT22;31340;51.402;0.016;2023-02-28T10:13:58;8.60;99.30
44775;DHT22;31340;51.402;0.016;2023-02-28T10:19:06;8.70;99.00
44775;DHT22;31340;51.402;0.016;2023-02-28T10:21:45;8.70;99.00
44775;DHT22;31340;51.402;0.016;2023-02-28T10:27:24;8.70;99.30
44775;DHT22;31340;51.402;0.016;2023-02-28T10:29:52;8.70;98.90
44775;DHT22;31340;51.402;0.016;2023-02-28T10:32:24;8.70;98.90
44775;DHT22;31340;51.402;0.016;2023-02-28T10:34:57;8.80;98.80
44775;DHT22;31340;51.402;0.016;2023-02-28T10:37:27;8.70;98.70
44775;DHT22;31340;51.402;0.016;2023-02-28T10:39:55;8.80;98.70
44775;DHT22;31340;51.402;0.016;2023-02-28T10:42:27;8.70;98.60
44775;DHT22;31340;51.402;0.016;2023-02-28T10:45:16;8.70;98.70
44775;DHT22;31340;51.402;0.016;2023-02-28T10:48:45;8.80;98.70
44775;DHT22;31340;51.402;0.016;2023-02-28T10:59:22;8.90;98.60
44775;DHT22;31340;51.402;0.016;2023-02-28T11:01:44;8.90;98.60
44775;DHT22;31340;51.402;0.016;2023-02-28T11:06:47;9.00;98.50
44775;DHT22;31340;51.402;0.016;2023-02-28T11:09:31;9.00;98.50
44775;DHT22;31340;51.402;0.016;2023-02-28T11:12:01;9.00;98.40
44775;DHT22;31340;51.402;0.016;2023-02-28T11:14:32;9.00;98.70
44775;DHT22;31340;51.402;0.016;2023-02-28T11:17:13;9.00;98.30
44775;DHT22;31340;51.402;0.016;2023-02-28T11:19:46;9.00;98.30
44775;DHT22;31340;51.402;0.016;2023-02-28T11:22:27;9.00;98.30
44775;DHT22;31340;51.402;0.016;2023-02-28T11:25:07;9.00;98.40
44775;DHT22;31340;51.402;0.016;2023-02-28T11:27:53;9.00;98.40
44775;DHT22;31340;51.402;0.016;2023-02-28T11:30:35;9.00;98.30
44775;DHT22;31340;51.402;0.016;2023-02-28T11:36:14;9.00;98.50
44775;DHT22;31340;51.402;0.016;2023-02-28T11:38:42;9.00;98.60
44775;DHT22;31340;51.402;0.016;2023-02-28T11:59:13;8.80;98.90
44775;DHT22;31340;51.402;0.016;2023-02-28T12:02:04;8.80;99.00
44775;DHT22;31340;51.402;0.016;2023-02-28T12:26:43;8.90;99.40
44775;DHT22;31340;51.402;0.016;2023-02-28T12:31:45;8.90;99.40
44775;DHT22;31340;51.402;0.016;2023-02-28T12:34:19;8.90;99.50
44775;DHT22;31340;51.402;0.016;2023-02-28T12:36:49;9.00;99.50
44775;DHT22;31340;51.402;0.016;2023-02-28T12:39:20;9.00;99.50
44775;DHT22;31340;51.402;0.016;2023-02-28T12:42:00;9.00;99.40
44775;DHT22;31340;51.402;0.016;2023-02-28T12:44:40;9.00;99.50
44775;DHT22;31340;51.402;0.016;2023-02-28T12:47:15;9.00;99.40
44775;DHT22;31340;51.402;0.016;2023-02-28T12:49:51;9.00;99.40
44775;DHT22;31340;51.402;0.016;2023-02-28T12:55:43;9.00;99.40
44775;DHT22;31340;51.402;0.016;2023-02-28T13:09:32;9.10;99.50
44775;DHT22;31340;51.402;0.016;2023-02-28T13:11:59;9.10;99.40
44775;DHT22;31340;51.402;0.016;2023-02-28T13:14:36;9.10;99.50
44775;DHT22;31340;51.402;0.016;2023-02-28T13:19:42;9.10;99.40
44775;DHT22;31340;51.402;0.016;2023-02-28T13:22:40;9.10;99.40
44775;DHT22;31340;51.402;0.016;2023-02-28T13:31:20;9.20;99.60
44775;DHT22;31340;51.402;0.016;2023-02-28T13:36:29;9.20;99.60
44775;DHT22;31340;51.402;0.016;2023-02-28T13:39:02;9.20;99.60
44775;DHT22;31340;51.402;0.016;2023-02-28T13:44:09;9.20;99.50
44775;DHT22;31340;51.402;0.016;2023-02-28T13:49:30;9.20;99.60
44775;DHT22;31340;51.402;0.016;2023-02-28T14:00:57;9.20;99.70
44775;DHT22;31340;51.402;0.016;2023-02-28T14:06:25;9.30;99.80
44775;DHT22;31340;51.402;0.016;2023-02-28T14:11:52;9.30;99.80
44775;DHT22;31340;51.402;0.016;2023-02-28T14:17:07;9.40;99.90
44775;DHT22;31340;51.402;0.016;2023-02-28T14:19:37;9.30;99.90
44775;DHT22;31340;51.402;0.016;2023-02-28T14:27:58;9.30;99.90
44775;DHT22;31340;51.402;0.016;2023-02-28T14:31:06;9.30;99.90
44775;DHT22;31340;51.402;0.016;2023-02-28T14:36:37;9.30;99.90
44775;DHT22;31340;51.402;0.016;2023-02-28T14:39:14;9.30;99.90
44775;DHT22;31340;51.402;0.016;2023-02-28T14:41:46;9.30;99.90
44775;DHT22;31340;51.402;0.016;2023-02-28T14:46:43;9.30;99.90
44775;DHT22;31340;51.402;0.016;2023-02-28T14:49:33;9.30;99.90
44775;DHT22;31340;51.402;0.016;2023-02-28T14:52:23;9.40;99.90
44775;DHT22;31340;51.402;0.016;2023-02-28T14:54:54;9.40;99.90
44775;DHT22;31340;51.402;0.016;2023-02-28T14:57:34;9.40;99.90
44775;DHT22;31340;51.402;0.016;2023-02-28T15:02:44;9.40;99.90
44775;DHT22;31340;51.402;0.016;2023-02-28T15:07:46;9.40;99.90
44775;DHT22;31340;51.402;0.016;2023-02-28T15:10:23;9.40;99.90
44775;DHT22;31340;51.402;0.016;2023-02-28T15:12:57;9.50;99.90
44775;DHT22;31340;51.402;0.016;2023-02-28T15:15:34;9.50;99.90
44775;DHT22;31340;51.402;0.016;2023-02-28T15:24:05;9.50;99.90
44775;DHT22;31340;51.402;0.016;2023-02-28T15:26:38;9.50;99.70
44775;DHT22;31340;51.402;0.016;2023-02-28T15:29:20;9.50;99.60
44775;DHT22;31340;51.402;0.016;2023-02-28T15:31:53;9.60;99.60
44775;DHT22;31340;51.402;0.016;2023-02-28T15:34:37;9.50;99.50
44775;DHT22;31340;51.402;0.016;2023-02-28T15:37:40;9.60;99.50
44775;DHT22;31340;51.402;0.016;2023-02-28T15:40:22;9.60;99.40
44775;DHT22;31340;51.402;0.016;2023-02-28T15:43:04;9.60;99.40
44775;DHT22;31340;51.402;0.016;2023-02-28T15:45:53;9.60;99.50
44775;DHT22;31340;51.402;0.016;2023-02-28T15:48:32;9.60;99.40
44775;DHT22;31340;51.402;0.016;2023-02-28T15:51:16;9.60;99.40
44775;DHT22;31340;51.402;0.016;2023-02-28T15:53:47;9.60;99.40
44775;DHT22;31340;51.402;0.016;2023-02-28T15:56:48;9.60;99.30
44775;DHT22;31340;51.402;0.016;2023-02-28T15:59:26;9.60;99.30
44775;DHT22;31340;51.402;0.016;2023-02-28T16:02:16;9.60;99.30
44775;DHT22;31340;51.402;0.016;2023-02-28T16:07:35;9.70;99.30
44775;DHT22;31340;51.402;0.016;2023-02-28T16:10:04;9.70;99.30
44775;DHT22;31340;51.402;0.016;2023-02-28T16:12:35;9.70;99.30
44775;DHT22;31340;51.402;0.016;2023-02-28T16:15:07;9.70;99.30
44775;DHT22;31340;51.402;0.016;2023-02-28T16:17:38;9.60;99.30
44775;DHT22;31340;51.402;0.016;2023-02-28T16:20:18;9.70;99.40
44775;DHT22;31340;51.402;0.016;2023-02-28T16:22:46;9.70;99.40
44775;DHT22;31340;51.402;0.016;2023-02-28T16:25:15;9.60;99.40
44775;DHT22;31340;51.402;0.016;2023-02-28T16:27:45;9.60;99.50
44775;DHT22;31340;51.402;0.016;2023-02-28T16:30:20;9.60;99.50
44775;DHT22;31340;51.402;0.016;2023-02-28T16:32:49;9.60;99.60
44775;DHT22;31340;51.402;0.016;2023-02-28T16:35:18;9.60;99.60
44775;DHT22;31340;51.402;0.016;2023-02-28T16:37:46;9.60;99.70
44775;DHT22;31340;51.402;0.016;2023-02-28T16:40:20;9.60;99.70
44775;DHT22;31340;51.402;0.016;2023-02-28T16:42:53;9.60;99.70
44775;DHT22;31340;51.402;0.016;2023-02-28T16:45:24;9.50;99.70
44775;DHT22;31340;51.402;0.016;2023-02-28T16:47:53;9.60;99.70
44775;DHT22;31340;51.402;0.016;2023-02-28T16:50:23;9.50;99.70
44775;DHT22;31340;51.402;0.016;2023-02-28T16:52:51;9.50;99.70
44775;DHT22;31340;51.402;0.016;2023-02-28T16:55:26;9.50;99.70
44775;DHT22;31340;51.402;0.016;2023-02-28T16:57:57;9.50;99.70
44775;DHT22;31340;51.402;0.016;2023-02-28T17:00:25;9.50;99.60
44775;DHT22;31340;51.402;0.016;2023-02-28T17:02:53;9.40;99.50
44775;DHT22;31340;51.402;0.016;2023-02-28T17:05:23;9.40;99.60
44775;DHT22;31340;51.402;0.016;2023-02-28T17:07:52;9.40;99.60
44775;DHT22;31340;51.402;0.016;2023-02-28T17:10:25;9.40;99.50
44775;DHT22;31340;51.402;0.016;2023-02-28T17:12:53;9.40;99.50
44775;DHT22;31340;51.402;0.016;2023-02-28T17:15:29;9.40;99.40
44775;DHT22;31340;51.402;0.016;2023-02-28T17:17:58;9.40;99.40
44775;DHT22;31340;51.402;0.016;2023-02-28T17:20:27;9.40;99.30
44775;DHT22;31340;51.402;0.016;2023-02-28T17:22:56;9.40;99.30
44775;DHT22;31340;51.402;0.016;2023-02-28T17:25:24;9.40;99.30
44775;DHT22;31340;51.402;0.016;2023-02-28T17:27:52;9.40;99.20
44775;DHT22;31340;51.402;0.016;2023-02-28T17:30:22;9.30;99.20
44775;DHT22;31340;51.402;0.016;2023-02-28T17:32:50;9.30;99.20
44775;DHT22;31340;51.402;0.016;2023-02-28T17:35:18;9.30;99.20
44775;DHT22;31340;51.402;0.016;2023-02-28T17:37:45;9.30;99.20
44775;DHT22;31340;51.402;0.016;2023-02-28T17:40:19;9.30;99.20
44775;DHT22;31340;51.402;0.016;2023-02-28T17:42:46;9.20;99.20
44775;DHT22;31340;51.402;0.016;2023-02-28T17:45:15;9.20;99.30
44775;DHT22;31340;51.402;0.016;2023-02-28T17:47:45;9.20;99.30
44775;DHT22;31340;51.402;0.016;2023-02-28T17:50:16;9.20;99.30
44775;DHT22;31340;51.402;0.016;2023-02-28T17:52:44;9.20;99.30
44775;DHT22;31340;51.402;0.016;2023-02-28T17:55:12;9.20;99.30
44775;DHT22;31340;51.402;0.016;2023-02-28T17:57:40;9.20;99.80
44775;DHT22;31340;51.402;0.016;2023-02-28T18:00:12;9.20;99.90
44775;DHT22;31340;51.402;0.016;2023-02-28T18:02:41;9.10;99.90
44775;DHT22;31340;51.402;0.016;2023-02-28T18:05:10;9.10;99.80
44775;DHT22;31340;51.402;0.016;2023-02-28T18:07:38;9.10;99.80
44775;DHT22;31340;51.402;0.016;2023-02-28T18:10:13;9.10;99.70
44775;DHT22;31340;51.402;0.016;2023-02-28T18:12:42;9.10;99.70
44775;DHT22;31340;51.402;0.016;2023-02-28T18:15:10;9.10;99.60
44775;DHT22;31340;51.402;0.016;2023-02-28T18:17:37;9.10;99.70
44775;DHT22;31340;51.402;0.016;2023-02-28T18:20:05;9.10;99.70
44775;DHT22;31340;51.402;0.016;2023-02-28T18:22:33;9.10;99.70
44775;DHT22;31340;51.402;0.016;2023-02-28T18:25:04;9.10;99.70
44775;DHT22;31340;51.402;0.016;2023-02-28T18:27:32;9.00;99.70
44775;DHT22;31340;51.402;0.016;2023-02-28T18:30:00;9.00;99.60
44775;DHT22;31340;51.402;0.016;2023-02-28T18:32:30;9.00;99.60
44775;DHT22;31340;51.402;0.016;2023-02-28T18:34:57;9.00;99.60
44775;DHT22;31340;51.402;0.016;2023-02-28T18:37:25;9.00;99.60
44775;DHT22;31340;51.402;0.016;2023-02-28T18:39:54;9.00;99.60
44775;DHT22;31340;51.402;0.016;2023-02-28T18:42:21;9.00;99.60
44775;DHT22;31340;51.402;0.016;2023-02-28T18:44:49;9.00;99.60
44775;DHT22;31340;51.402;0.016;2023-02-28T18:47:16;9.00;99.60
44775;DHT22;31340;51.402;0.016;2023-02-28T18:49:44;9.00;99.60
44775;DHT22;31340;51.402;0.016;2023-02-28T18:52:11;8.90;99.60
44775;DHT22;31340;51.402;0.016;2023-02-28T18:54:38;9.00;99.70
44775;DHT22;31340;51.402;0.016;2023-02-28T18:57:06;8.90;99.80
44775;DHT22;31340;51.402;0.016;2023-02-28T18:59:33;8.90;99.80
44775;DHT22;31340;51.402;0.016;2023-02-28T19:02:01;8.90;99.90
44775;DHT22;31340;51.402;0.016;2023-02-28T19:04:28;8.90;99.90
44775;DHT22;31340;51.402;0.016;2023-02-28T19:06:56;8.90;99.90